createdAt,value
2018-07-15T00:02:13.707Z,3.47
2018-07-15T00:04:42.041Z,3.43
2018-07-15T00:07:10.468Z,3.40
2018-07-15T00:09:39.250Z,3.00
2018-07-15T00:12:08.225Z,3.50
2018-07-15T00:14:36.640Z,3.00
2018-07-15T00:17:05.080Z,2.93
2018-07-15T00:19:33.432Z,2.77
2018-07-15T00:22:01.815Z,2.93
2018-07-15T00:24:30.604Z,2.97
2018-07-15T00:26:58.961Z,3.17
2018-07-15T00:29:27.712Z,2.97
2018-07-15T00:31:56.438Z,3.10
2018-07-15T00:34:24.869Z,3.00
2018-07-15T00:36:53.204Z,2.83
2018-07-15T00:39:22.010Z,3.13
2018-07-15T00:41:50.393Z,2.77
2018-07-15T00:44:19.164Z,3.07
2018-07-15T00:46:47.585Z,2.90
2018-07-15T00:49:16.450Z,3.17
2018-07-15T00:51:44.823Z,3.00
2018-07-15T00:54:13.557Z,2.67
2018-07-15T00:56:42.321Z,2.90
2018-07-15T00:59:10.678Z,3.00
2018-07-15T01:01:39.456Z,2.97
2018-07-15T01:04:07.804Z,2.97
2018-07-15T01:06:36.191Z,3.17
2018-07-15T01:09:06.364Z,3.50
2018-07-15T01:11:35.145Z,3.13
2018-07-15T01:14:03.538Z,3.13
2018-07-15T01:16:31.959Z,3.20
2018-07-15T01:19:00.377Z,3.13
2018-07-15T01:21:28.810Z,3.40
2018-07-15T01:23:57.613Z,3.50
2018-07-15T01:26:26.023Z,3.40
2018-07-15T01:28:54.401Z,3.20
2018-07-15T01:31:22.874Z,3.43
2018-07-15T01:33:51.273Z,3.87
2018-07-15T01:36:19.700Z,3.87
2018-07-15T01:38:48.475Z,3.77
2018-07-15T01:41:16.886Z,3.73
2018-07-15T01:43:45.309Z,3.97
2018-07-15T01:46:13.707Z,4.17
2018-07-15T01:48:42.174Z,3.87
2018-07-15T01:51:10.698Z,3.80
2018-07-15T01:53:39.461Z,3.57
2018-07-15T01:56:07.883Z,3.67
2018-07-15T01:58:36.749Z,3.77
2018-07-15T02:01:05.531Z,3.77
2018-07-15T02:03:33.976Z,3.63
2018-07-15T02:06:02.423Z,3.40
2018-07-15T02:08:30.813Z,3.57
2018-07-15T02:10:59.623Z,3.90
2018-07-15T02:13:28.445Z,3.87
2018-07-15T02:15:56.924Z,3.73
2018-07-15T02:18:25.308Z,3.80
2018-07-15T02:20:53.759Z,3.70
2018-07-15T02:23:22.589Z,4.13
2018-07-15T02:25:50.962Z,3.77
2018-07-15T02:28:19.376Z,4.10
2018-07-15T02:30:47.774Z,4.23
2018-07-15T02:33:16.975Z,4.10
2018-07-15T02:35:45.385Z,3.50
2018-07-15T02:38:14.180Z,3.60
2018-07-15T02:40:42.612Z,3.87
2018-07-15T02:43:11.008Z,3.90
2018-07-15T02:45:39.792Z,4.87
2018-07-15T02:48:08.580Z,5.27
2018-07-15T02:50:37.023Z,4.47
2018-07-15T02:53:05.928Z,4.57
2018-07-15T02:55:34.330Z,4.57
2018-07-15T02:58:03.123Z,4.10
2018-07-15T03:00:31.941Z,5.00
2018-07-15T03:03:01.389Z,4.10
2018-07-15T03:05:30.265Z,4.47
2018-07-15T03:07:58.631Z,3.83
2018-07-15T03:10:27.105Z,4.07
2018-07-15T03:12:55.896Z,4.37
2018-07-15T03:15:25.070Z,4.40
2018-07-15T03:17:53.550Z,4.43
2018-07-15T03:20:22.337Z,3.83
2018-07-15T03:25:44.690Z,4.20
2018-07-15T03:28:13.494Z,3.90
2018-07-15T03:30:41.919Z,5.00
2018-07-15T03:33:10.308Z,5.40
2018-07-15T03:35:39.065Z,4.67
2018-07-15T03:38:07.918Z,5.10
2018-07-15T03:40:36.728Z,5.50
2018-07-15T03:43:05.520Z,5.17
2018-07-15T03:45:33.946Z,5.43
2018-07-15T03:48:02.723Z,4.77
2018-07-15T03:50:31.156Z,5.47
2018-07-15T03:52:59.626Z,5.57
2018-07-15T03:55:28.942Z,4.47
2018-07-15T03:57:57.680Z,4.83
2018-07-15T04:00:26.077Z,4.33
2018-07-15T04:02:54.470Z,4.93
2018-07-15T04:05:22.870Z,4.30
2018-07-15T04:07:51.307Z,4.20
2018-07-15T04:10:20.179Z,4.63
2018-07-15T04:12:48.951Z,4.63
2018-07-15T04:15:17.354Z,5.20
2018-07-15T04:17:50.585Z,4.50
2018-07-15T04:20:18.987Z,5.20
2018-07-15T04:22:47.777Z,5.37
2018-07-15T04:25:16.181Z,5.43
2018-07-15T04:27:44.993Z,5.30
2018-07-15T04:30:13.439Z,5.83
2018-07-15T04:32:41.834Z,5.33
2018-07-15T04:35:10.666Z,5.57
2018-07-15T04:37:39.029Z,5.63
2018-07-15T04:40:07.448Z,5.97
2018-07-15T04:42:36.237Z,5.93
2018-07-15T04:45:04.636Z,6.00
2018-07-15T04:47:33.057Z,5.73
2018-07-15T04:50:01.841Z,6.13
2018-07-15T04:52:30.748Z,6.50
2018-07-15T04:54:59.163Z,6.17
2018-07-15T04:57:28.244Z,6.53
2018-07-15T04:59:57.497Z,5.90
2018-07-15T05:02:26.338Z,6.10
2018-07-15T05:04:54.707Z,6.60
2018-07-15T05:07:23.296Z,6.60
2018-07-15T05:09:52.158Z,6.50
2018-07-15T05:12:20.562Z,7.23
2018-07-15T05:14:48.990Z,7.37
2018-07-15T05:17:17.360Z,7.20
2018-07-15T05:19:45.790Z,7.27
2018-07-15T05:59:11.382Z,7.10
2018-07-15T07:45:15.642Z,2.77
2018-07-15T07:47:44.056Z,2.87
2018-07-15T07:50:12.450Z,2.80
2018-07-15T07:52:41.318Z,2.97
2018-07-15T07:55:10.146Z,3.10
2018-07-15T07:57:38.934Z,5.60
2018-07-15T08:00:07.393Z,16.97
2018-07-15T08:02:36.428Z,2.70
2018-07-15T08:05:04.979Z,2.43
2018-07-15T08:07:33.373Z,2.40
2018-07-15T08:10:01.995Z,2.83
2018-07-15T08:12:30.488Z,2.30
2018-07-15T08:14:59.534Z,2.30
2018-07-15T08:19:55.890Z,2.60
2018-07-15T08:22:24.368Z,2.10
2018-07-15T08:24:52.835Z,2.03
2018-07-15T08:27:21.731Z,2.43
2018-07-15T08:29:55.611Z,2.43
2018-07-15T08:32:24.011Z,3.10
2018-07-15T08:34:52.430Z,2.70
2018-07-15T08:37:20.811Z,2.33
2018-07-15T08:39:49.271Z,2.30
2018-07-15T08:42:18.056Z,2.50
2018-07-15T08:44:46.835Z,2.30
2018-07-15T08:47:15.297Z,2.13
2018-07-15T08:49:44.072Z,2.00
2018-07-15T08:52:12.568Z,2.03
2018-07-15T08:54:41.067Z,1.90
2018-07-15T08:57:09.858Z,2.20
2018-07-15T08:59:38.695Z,2.30
2018-07-15T09:02:08.608Z,1.90
2018-07-15T09:04:36.991Z,2.00
2018-07-15T09:07:06.970Z,2.30
2018-07-15T09:09:35.898Z,2.40
2018-07-15T09:12:04.428Z,1.70
2018-07-15T09:14:32.854Z,1.77
2018-07-15T09:17:01.250Z,1.90
2018-07-15T09:19:30.041Z,1.43
2018-07-15T09:21:58.481Z,2.17
2018-07-15T09:24:27.304Z,2.20
2018-07-15T09:26:55.719Z,1.93
2018-07-15T09:29:24.184Z,1.87
2018-07-15T09:31:52.982Z,1.70
2018-07-15T09:34:21.350Z,1.90
2018-07-15T09:36:49.762Z,1.57
2018-07-15T09:39:18.165Z,1.70
2018-07-15T09:41:46.952Z,1.70
2018-07-15T09:44:15.389Z,1.80
2018-07-15T09:46:43.772Z,1.50
2018-07-15T09:49:12.226Z,1.47
2018-07-15T09:51:40.623Z,1.53
2018-07-15T09:54:08.994Z,1.60
2018-07-15T09:56:37.420Z,1.30
2018-07-15T09:59:05.812Z,1.20
2018-07-15T10:01:34.218Z,1.30
2018-07-15T10:04:02.665Z,1.30
2018-07-15T10:06:31.476Z,0.90
2018-07-15T10:08:59.869Z,1.20
2018-07-15T10:11:28.257Z,1.10
2018-07-15T10:13:58.134Z,1.00
2018-07-15T10:16:26.533Z,1.30
2018-07-15T10:18:55.386Z,1.50
2018-07-15T10:21:23.823Z,1.47
2018-07-15T10:23:52.601Z,1.67
2018-07-15T10:26:21.081Z,1.10
2018-07-15T10:28:49.896Z,1.53
2018-07-15T10:31:18.283Z,1.03
2018-07-15T10:33:47.088Z,1.40
2018-07-15T10:36:15.512Z,1.40
2018-07-15T10:38:43.950Z,3.20
2018-07-15T10:41:12.765Z,1.20
2018-07-15T10:43:41.196Z,1.00
2018-07-15T10:46:10.026Z,1.10
2018-07-15T10:48:38.397Z,1.10
2018-07-15T10:51:07.251Z,1.20
2018-07-15T10:53:35.664Z,1.20
2018-07-15T10:56:04.516Z,1.00
2018-07-15T10:58:33.757Z,1.30
2018-07-15T11:01:02.650Z,1.30
2018-07-15T11:03:31.537Z,1.50
2018-07-15T11:06:00.395Z,1.20
2018-07-15T11:08:28.865Z,1.27
2018-07-15T11:10:57.318Z,1.10
2018-07-15T11:13:26.173Z,1.40
2018-07-15T11:15:55.061Z,1.30
2018-07-15T11:18:23.898Z,1.30
2018-07-15T11:20:52.321Z,1.17
2018-07-15T11:23:21.114Z,1.33
2018-07-15T11:25:49.935Z,1.20
2018-07-15T11:28:18.305Z,1.40
2018-07-15T11:30:47.150Z,1.20
2018-07-15T11:33:15.976Z,0.93
2018-07-15T11:35:44.834Z,1.13
2018-07-15T11:38:13.691Z,1.17
2018-07-15T11:40:42.486Z,1.10
2018-07-15T11:43:11.304Z,1.20
2018-07-15T11:45:40.166Z,1.10
2018-07-15T11:48:08.599Z,1.30
2018-07-15T11:50:37.420Z,1.20
2018-07-15T11:53:06.234Z,1.30
2018-07-15T11:55:34.681Z,1.20
2018-07-15T11:58:03.446Z,1.10
2018-07-15T12:00:31.912Z,1.30
2018-07-15T12:03:00.777Z,1.40
2018-07-15T12:05:29.585Z,1.20
2018-07-15T12:07:58.424Z,1.43
2018-07-15T12:10:27.181Z,1.40
2018-07-15T12:12:55.984Z,1.17
2018-07-15T12:15:24.433Z,1.20
2018-07-15T12:17:52.813Z,1.20
2018-07-15T12:20:21.269Z,1.30
2018-07-15T12:22:50.107Z,1.30
2018-07-15T12:25:18.900Z,1.13
2018-07-15T12:27:47.324Z,1.10
2018-07-15T12:30:16.151Z,1.30
2018-07-15T12:32:44.556Z,1.33
2018-07-15T12:35:13.363Z,1.20
2018-07-15T12:37:41.879Z,1.30
2018-07-15T12:40:10.867Z,1.30
2018-07-15T12:42:39.283Z,1.20
2018-07-15T12:45:07.720Z,1.30
2018-07-15T12:47:36.154Z,1.37
2018-07-15T12:50:05.691Z,1.30
2018-07-15T12:52:34.616Z,1.30
2018-07-15T12:55:03.487Z,1.17
2018-07-15T12:57:32.305Z,1.00
2018-07-15T13:00:01.207Z,1.10
2018-07-15T13:02:29.634Z,1.00
2018-07-15T13:04:58.457Z,1.00
2018-07-15T13:07:26.927Z,1.00
2018-07-15T13:09:55.336Z,1.13
2018-07-15T13:12:23.766Z,1.10
2018-07-15T13:14:52.142Z,0.80
2018-07-15T13:17:21.007Z,0.87
2018-07-15T13:19:49.800Z,0.80
2018-07-15T13:22:18.269Z,1.00
2018-07-15T13:24:47.077Z,0.90
2018-07-15T13:27:15.489Z,1.03
2018-07-15T13:29:44.331Z,1.20
2018-07-15T13:32:13.213Z,1.10
2018-07-15T13:34:42.041Z,1.10
2018-07-15T13:37:10.391Z,1.30
2018-07-15T13:39:39.194Z,0.97
2018-07-15T13:42:08.072Z,1.10
2018-07-15T13:44:36.503Z,1.17
2018-07-15T13:47:05.332Z,1.00
2018-07-15T13:49:33.782Z,1.20
2018-07-15T13:52:02.161Z,1.20
2018-07-15T13:54:30.930Z,1.10
2018-07-15T13:56:59.356Z,0.90
2018-07-15T13:59:27.908Z,1.10
2018-07-15T14:01:56.367Z,1.00
2018-07-15T14:04:24.741Z,1.10
2018-07-15T14:06:53.154Z,1.00
2018-07-15T14:09:21.941Z,1.20
2018-07-15T14:11:50.712Z,1.07
2018-07-15T14:14:19.552Z,1.20
2018-07-15T14:16:47.992Z,0.97
2018-07-15T14:19:16.877Z,0.97
2018-07-15T14:21:45.258Z,1.03
2018-07-15T14:24:13.661Z,1.13
2018-07-15T14:26:42.475Z,1.10
2018-07-15T14:29:11.349Z,1.20
2018-07-15T14:31:40.173Z,1.30
2018-07-15T14:34:12.899Z,0.93
2018-07-15T14:36:41.672Z,1.17
2018-07-15T14:39:10.472Z,1.33
2018-07-15T14:41:38.885Z,1.30
2018-07-15T14:44:07.252Z,1.10
2018-07-15T14:46:36.098Z,1.20
2018-07-15T14:49:04.947Z,1.00
2018-07-15T14:51:34.170Z,1.10
2018-07-15T14:54:02.937Z,1.10
2018-07-15T14:56:31.745Z,1.30
2018-07-15T14:59:00.579Z,1.13
2018-07-15T15:01:29.359Z,1.10
2018-07-15T15:03:57.828Z,1.03
2018-07-15T15:06:26.278Z,1.20
2018-07-15T15:08:55.100Z,1.13
2018-07-15T15:11:23.881Z,1.23
2018-07-15T15:13:52.724Z,1.10
2018-07-15T15:16:21.175Z,1.10
2018-07-15T15:18:49.630Z,1.17
2018-07-15T15:21:18.588Z,1.00
2018-07-15T15:23:47.000Z,1.20
2018-07-15T15:26:15.845Z,0.90
2018-07-15T15:28:44.605Z,1.10
2018-07-15T15:31:13.455Z,1.10
2018-07-15T15:33:41.915Z,1.15
2018-07-15T15:36:10.794Z,1.22
2018-07-15T15:38:39.218Z,1.20
2018-07-15T15:41:07.638Z,1.30
2018-07-15T15:43:36.460Z,1.00
2018-07-15T15:46:04.924Z,1.02
2018-07-15T15:48:33.663Z,1.07
2018-07-15T15:51:02.544Z,0.93
2018-07-15T15:53:31.958Z,0.80
2018-07-15T15:56:00.372Z,1.05
2018-07-15T15:58:28.806Z,0.80
2018-07-15T16:00:57.280Z,1.35
2018-07-15T16:03:25.644Z,1.10
2018-07-15T16:05:54.454Z,1.05
2018-07-15T16:08:23.213Z,1.05
2018-07-15T16:10:52.074Z,0.90
2018-07-15T16:13:20.877Z,0.90
2018-07-15T16:15:49.717Z,1.00
2018-07-15T16:18:18.606Z,0.90
2018-07-15T16:28:10.639Z,1.00
2018-07-15T16:30:39.453Z,0.70
2018-07-15T16:33:08.280Z,1.00
2018-07-15T16:35:37.131Z,1.00
2018-07-15T16:38:05.598Z,1.15
2018-07-15T16:40:34.384Z,1.02
2018-07-15T16:43:03.204Z,0.95
2018-07-15T16:45:31.599Z,0.98
2018-07-15T16:48:00.392Z,1.00
2018-07-15T16:50:29.199Z,1.17
2018-07-15T16:52:58.052Z,1.00
2018-07-15T16:55:26.912Z,1.27
2018-07-15T16:57:55.764Z,1.02
2018-07-15T17:00:24.569Z,0.80
2018-07-15T17:02:53.071Z,1.00
2018-07-15T17:05:21.851Z,1.10
2018-07-15T17:07:50.635Z,1.20
2018-07-15T17:10:19.419Z,1.15
2018-07-15T17:12:48.229Z,1.17
2018-07-15T17:15:16.614Z,1.05
2018-07-15T17:17:45.136Z,1.12
2018-07-15T17:20:13.554Z,0.88
2018-07-15T17:22:41.977Z,0.95
2018-07-15T17:25:10.780Z,1.27
2018-07-15T17:27:39.568Z,1.12
2018-07-15T17:30:08.378Z,1.20
2018-07-15T17:32:37.155Z,1.00
2018-07-15T17:35:05.594Z,1.20
2018-07-15T17:37:34.016Z,1.00
2018-07-15T17:40:02.806Z,0.90
2018-07-15T17:42:31.254Z,1.00
2018-07-15T17:45:00.081Z,1.20
2018-07-15T17:47:28.939Z,1.00
2018-07-15T17:49:57.338Z,1.42
2018-07-15T17:52:25.782Z,1.30
2018-07-15T17:54:54.274Z,1.37
2018-07-15T17:57:22.691Z,1.10
2018-07-15T17:59:51.148Z,1.20
2018-07-15T18:02:19.593Z,1.15
2018-07-15T18:04:48.033Z,1.20
2018-07-15T18:07:16.466Z,1.00
2018-07-15T18:09:45.764Z,1.12
2018-07-15T18:12:16.610Z,1.17
2018-07-15T18:14:45.103Z,1.20
2018-07-15T18:17:13.933Z,1.27
2018-07-15T18:19:42.768Z,1.57
2018-07-15T18:22:12.045Z,1.42
2018-07-15T18:24:40.491Z,1.40
2018-07-15T18:27:09.348Z,1.17
2018-07-15T18:29:37.755Z,1.50
2018-07-15T18:32:06.747Z,1.87
2018-07-15T18:34:35.584Z,1.30
2018-07-15T18:37:05.515Z,1.40
2018-07-15T18:39:33.923Z,1.33
2018-07-15T18:42:02.726Z,1.47
2018-07-15T18:44:31.187Z,1.73
2018-07-15T18:46:59.954Z,1.73
2018-07-15T18:49:28.800Z,3.13
2018-07-15T18:59:26.056Z,12.00
2018-07-15T19:19:08.931Z,1.60
2018-07-15T19:21:37.353Z,1.60
2018-07-15T20:05:57.526Z,1.80
2018-07-15T20:08:25.999Z,1.87
2018-07-15T20:10:54.817Z,2.07
2018-07-15T20:13:23.281Z,1.90
2018-07-15T20:15:51.706Z,2.10
2018-07-15T20:18:20.121Z,1.80
2018-07-15T20:20:48.562Z,1.97
2018-07-15T20:23:17.017Z,2.10
2018-07-15T20:25:45.377Z,1.80
2018-07-15T20:28:14.172Z,1.97
2018-07-15T20:30:42.631Z,2.10
2018-07-15T20:33:11.072Z,1.90
2018-07-15T21:05:11.806Z,2.60
2018-07-15T21:07:40.572Z,2.30
2018-07-15T21:10:09.395Z,2.20
2018-07-15T21:12:38.544Z,2.63
2018-07-15T21:15:06.951Z,2.57
2018-07-15T21:17:35.796Z,2.50
2018-07-15T21:20:04.480Z,2.50
2018-07-15T21:22:33.265Z,2.60
2018-07-15T21:25:02.021Z,2.33
2018-07-15T21:27:30.824Z,2.40
2018-07-15T21:29:59.760Z,2.40
2018-07-15T21:32:28.385Z,2.43
2018-07-15T21:34:57.212Z,2.17
2018-07-15T21:37:25.638Z,2.47
2018-07-15T21:39:54.073Z,2.20
2018-07-15T21:42:22.872Z,2.10
2018-07-15T21:44:51.345Z,2.70
2018-07-15T21:47:19.713Z,2.40
2018-07-15T21:49:48.511Z,2.60
2018-07-15T21:52:17.328Z,2.80
2018-07-15T21:54:45.726Z,2.63
2018-07-15T21:57:14.106Z,2.60
2018-07-15T21:59:42.939Z,2.47
2018-07-15T22:02:12.046Z,2.83
2018-07-15T22:04:40.484Z,2.60
2018-07-15T23:46:09.248Z,2.90
2018-07-15T23:48:37.606Z,3.00
2018-07-15T23:51:06.088Z,3.07
2018-07-15T23:53:34.522Z,2.97
2018-07-15T23:56:03.447Z,3.03
2018-07-15T23:58:32.259Z,3.10
